Hl Boryeong — 3FYM — position and weather

sailwx.info

Track history (hours):
 
Tides and Currents Weather Stations Pressure Air Temp Water Temp Dewpoint Dewpoint Depression Visibility Wind Speed Wind Dir Waves Ship Positions

Hl Boryeong

Last reported at 2017-Feb-04 13:03 UTC. Time now 2017-Feb-22 22:03 UTC.
Position S 25°56' E 154°15'.
Warning: this ship's position is 18 days out of date.

Length 273 m; draft 15.2 m.

Type: Cargo ship. MMSI: 374471000.

Date/timePositionNaut miles runAvg speedWind from/ knotsBaromVisibWave heightAir tempDewpointWater temp
2017-Feb-04 13:03S 25°56' E 154°15'611.4
2017-Feb-04 12:33S 26°02' E 154°15'1211.5
2017-Feb-04 11:33S 26°13' E 154°15'1211.5
2017-Feb-04 10:28S 26°25' E 154°15'1011.2
2017-Feb-04 09:33S 26°36' E 154°13'1211.3
2017-Feb-04 08:32S 26°47' E 154°14'7710.5
2017-Feb-04 01:11S 28°04' E 154°09'11 9.9
2017-Feb-04 00:06S 28°15' E 154°08'610.3
2017-Feb-03 23:33S 28°20' E 154°08'26110.0
2017-Feb-02 21:29S 32°31' E 152°44'7 7.7
2017-Feb-02 20:33S 32°37' E 152°39'8 8.2
2017-Feb-02 19:33S 32°43' E 152°33'9 9.0
2017-Feb-02 18:33S 32°50' E 152°26'10 9.8
2017-Feb-02 17:33S 32°53' E 152°15'1010.2
2017-Feb-02 16:33S 32°56' E 152°03'11 9.9
2017-Feb-02 15:29S 32°59' E 151°51'5 5.7
2017-Feb-02 14:33S 32°55' E 151°46'2 1.7
2017-Feb-02 13:31S 32°53' E 151°46'0 0.0
2017-Feb-02 12:31S 32°53' E 151°46'0 0.0
2017-Feb-02 11:31S 32°53' E 151°46'0 0.0
2017-Feb-02 10:31S 32°53' E 151°46'0 0.0
2017-Feb-02 09:31S 32°53' E 151°46'0 0.0
2017-Feb-02 08:31S 32°53' E 151°46'0 0.0
2017-Feb-02 07:31S 32°53' E 151°46'0 0.0
2017-Feb-02 06:31S 32°53' E 151°46'0 0.0
2017-Feb-02 05:31S 32°53' E 151°46'0 0.0
2017-Feb-02 04:31S 32°53' E 151°46'0 0.0
2017-Feb-02 03:31S 32°53' E 151°46'0 0.0
2017-Feb-02 02:31S 32°53' E 151°46'0 0.0
2017-Feb-02 01:28S 32°53' E 151°46'0 0.0
2017-Feb-02 00:31S 32°53' E 151°46'0 0.0
2017-Feb-01 23:31S 32°53' E 151°46'0 0.0
2017-Feb-01 22:25S 32°53' E 151°46'0 0.0
2017-Feb-01 21:31S 32°53' E 151°46'0 0.0
2017-Feb-01 20:31S 32°53' E 151°46'0 0.0
2017-Feb-01 19:31S 32°53' E 151°46'0 0.0
2017-Feb-01 18:31S 32°53' E 151°46'0 0.0
2017-Feb-01 17:31S 32°53' E 151°46'0 0.0
2017-Feb-01 16:31S 32°53' E 151°46'0 0.0
2017-Feb-01 15:31S 32°53' E 151°46'0 0.0
2017-Feb-01 14:31S 32°53' E 151°46'0 0.0
2017-Feb-01 12:31S 32°53' E 151°46'0 0.0
2017-Feb-01 11:31S 32°53' E 151°46'0 0.0
2017-Feb-01 10:31S 32°53' E 151°46'0 0.0
2017-Feb-01 09:31S 32°53' E 151°46'0 0.0
2017-Feb-01 08:28S 32°53' E 151°46'0 0.0
2017-Feb-01 07:31S 32°53' E 151°46'0 0.0
2017-Feb-01 06:31S 32°53' E 151°46'0 0.0
2017-Feb-01 05:31S 32°53' E 151°46'0 0.0
2017-Feb-01 04:31S 32°53' E 151°46'0 0.0
2017-Feb-01 03:31S 32°53' E 151°46'0 0.0
2017-Feb-01 02:34S 32°53' E 151°46'1 1.1
2017-Feb-01 01:34S 32°54' E 151°46'7 6.6
2017-Feb-01 00:32S 32°57' E 151°54'5 5.5
2017-Jan-31 23:34S 33°02' E 151°55'4 4.5
2017-Jan-31 22:33S 33°06' E 151°58'5 4.6
2017-Jan-31 21:33S 33°10' E 151°59'4 4.2
2017-Jan-31 20:33S 33°13' E 151°56'4 4.5
2017-Jan-31 19:33S 33°18' E 151°55'1 0.7
2017-Jan-31 18:30S 33°18' E 151°54'4 4.0
2017-Jan-31 17:34S 33°15' E 151°55'2 1.8
2017-Jan-31 16:33S 33°16' E 151°57'14 1.7
2017-Jan-31 08:33S 33°30' E 151°58'1 0.9
2017-Jan-31 07:33S 33°29' E 151°59'1 1.4
2017-Jan-31 06:33S 33°29' E 152°00'2 2.1
2017-Jan-31 05:34S 33°27' E 152°02'2 2.4
2017-Jan-31 04:34S 33°25' E 152°03'3 3.1
2017-Jan-31 03:34S 33°22' E 152°04'3 2.7
2017-Jan-31 02:34S 33°19' E 152°04'3 2.5
2017-Jan-31 01:34S 33°16' E 152°05'2 2.4
2017-Jan-31 00:34S 33°14' E 152°06'2 2.2
2017-Jan-30 23:34S 33°12' E 152°07'2 2.2
2017-Jan-30 22:33S 33°10' E 152°06'5 5.1
2017-Jan-30 21:34S 33°07' E 152°02'3 2.7
2017-Jan-30 20:34S 33°07' E 151°58'4 4.5
2017-Jan-30 19:34S 33°12' E 151°57'4 4.0
2017-Jan-30 18:34S 33°15' E 151°53'2 1.6
2017-Jan-30 17:33S 33°13' E 151°53'5 5.2
2017-Jan-30 16:34S 33°08' E 151°56'5 5.4
2017-Jan-30 15:34S 33°03' E 151°58'4 4.4
2017-Jan-30 14:34S 32°59' E 151°58'10 9.6
2017-Jan-30 13:33S 32°53' E 152°07'1111.5
2017-Jan-30 12:33S 32°47' E 152°19'1212.1
2017-Jan-30 11:33S 32°41' E 152°31'1313.0
2017-Jan-30 10:34S 32°30' E 152°40'1613.6
2017-Jan-30 09:25S 32°16' E 152°47'1214.0
2017-Jan-30 08:33S 32°04' E 152°52'26714.0
2017-Jan-29 13:24S 27°44' E 154°01'4313.5
2017-Jan-29 10:15S 27°01' E 154°03'  
Track history (hours):
 
Tides and Currents Weather Stations Pressure Air Temp Water Temp Dewpoint Dewpoint Depression Visibility Wind Speed Wind Dir Waves Ship Positions

Hl Boryeong

Last reported at 2017-Feb-04 13:03 UTC. Time now 2017-Feb-22 22:03 UTC.
Position S 25°56' E 154°15'.
Warning: this ship's position is 18 days out of date.

Length 273 m; draft 15.2 m.

Type: Cargo ship. MMSI: 374471000.

Date/timePositionNaut miles runAvg speedWind from/ knotsBaromVisibWave heightAir tempDewpointWater temp
2017-Feb-04 13:03S 25°56' E 154°15'611.4
2017-Feb-04 12:33S 26°02' E 154°15'1211.5
2017-Feb-04 11:33S 26°13' E 154°15'1211.5
2017-Feb-04 10:28S 26°25' E 154°15'1011.2
2017-Feb-04 09:33S 26°36' E 154°13'1211.3
2017-Feb-04 08:32S 26°47' E 154°14'7710.5
2017-Feb-04 01:11S 28°04' E 154°09'11 9.9
2017-Feb-04 00:06S 28°15' E 154°08'610.3
2017-Feb-03 23:33S 28°20' E 154°08'26110.0
2017-Feb-02 21:29S 32°31' E 152°44'7 7.7
2017-Feb-02 20:33S 32°37' E 152°39'8 8.2
2017-Feb-02 19:33S 32°43' E 152°33'9 9.0
2017-Feb-02 18:33S 32°50' E 152°26'10 9.8
2017-Feb-02 17:33S 32°53' E 152°15'1010.2
2017-Feb-02 16:33S 32°56' E 152°03'11 9.9
2017-Feb-02 15:29S 32°59' E 151°51'5 5.7
2017-Feb-02 14:33S 32°55' E 151°46'2 1.7
2017-Feb-02 13:31S 32°53' E 151°46'0 0.0
2017-Feb-02 12:31S 32°53' E 151°46'0 0.0
2017-Feb-02 11:31S 32°53' E 151°46'0 0.0
2017-Feb-02 10:31S 32°53' E 151°46'0 0.0
2017-Feb-02 09:31S 32°53' E 151°46'0 0.0
2017-Feb-02 08:31S 32°53' E 151°46'0 0.0
2017-Feb-02 07:31S 32°53' E 151°46'0 0.0
2017-Feb-02 06:31S 32°53' E 151°46'0 0.0
2017-Feb-02 05:31S 32°53' E 151°46'0 0.0
2017-Feb-02 04:31S 32°53' E 151°46'0 0.0
2017-Feb-02 03:31S 32°53' E 151°46'0 0.0
2017-Feb-02 02:31S 32°53' E 151°46'0 0.0
2017-Feb-02 01:28S 32°53' E 151°46'0 0.0
2017-Feb-02 00:31S 32°53' E 151°46'0 0.0
2017-Feb-01 23:31S 32°53' E 151°46'0 0.0
2017-Feb-01 22:25S 32°53' E 151°46'0 0.0
2017-Feb-01 21:31S 32°53' E 151°46'0 0.0
2017-Feb-01 20:31S 32°53' E 151°46'0 0.0
2017-Feb-01 19:31S 32°53' E 151°46'0 0.0
2017-Feb-01 18:31S 32°53' E 151°46'0 0.0
2017-Feb-01 17:31S 32°53' E 151°46'0 0.0
2017-Feb-01 16:31S 32°53' E 151°46'0 0.0
2017-Feb-01 15:31S 32°53' E 151°46'0 0.0
2017-Feb-01 14:31S 32°53' E 151°46'0 0.0
2017-Feb-01 12:31S 32°53' E 151°46'0 0.0
2017-Feb-01 11:31S 32°53' E 151°46'0 0.0
2017-Feb-01 10:31S 32°53' E 151°46'0 0.0
2017-Feb-01 09:31S 32°53' E 151°46'0 0.0
2017-Feb-01 08:28S 32°53' E 151°46'0 0.0
2017-Feb-01 07:31S 32°53' E 151°46'0 0.0
2017-Feb-01 06:31S 32°53' E 151°46'0 0.0
2017-Feb-01 05:31S 32°53' E 151°46'0 0.0
2017-Feb-01 04:31S 32°53' E 151°46'0 0.0
2017-Feb-01 03:31S 32°53' E 151°46'0 0.0
2017-Feb-01 02:34S 32°53' E 151°46'1 1.1
2017-Feb-01 01:34S 32°54' E 151°46'7 6.6
2017-Feb-01 00:32S 32°57' E 151°54'5 5.5
2017-Jan-31 23:34S 33°02' E 151°55'4 4.5
2017-Jan-31 22:33S 33°06' E 151°58'5 4.6
2017-Jan-31 21:33S 33°10' E 151°59'4 4.2
2017-Jan-31 20:33S 33°13' E 151°56'4 4.5
2017-Jan-31 19:33S 33°18' E 151°55'1 0.7
2017-Jan-31 18:30S 33°18' E 151°54'4 4.0
2017-Jan-31 17:34S 33°15' E 151°55'2 1.8
2017-Jan-31 16:33S 33°16' E 151°57'14 1.7
2017-Jan-31 08:33S 33°30' E 151°58'1 0.9
2017-Jan-31 07:33S 33°29' E 151°59'1 1.4
2017-Jan-31 06:33S 33°29' E 152°00'2 2.1
2017-Jan-31 05:34S 33°27' E 152°02'2 2.4
2017-Jan-31 04:34S 33°25' E 152°03'3 3.1
2017-Jan-31 03:34S 33°22' E 152°04'3 2.7
2017-Jan-31 02:34S 33°19' E 152°04'3 2.5
2017-Jan-31 01:34S 33°16' E 152°05'2 2.4
2017-Jan-31 00:34S 33°14' E 152°06'2 2.2
2017-Jan-30 23:34S 33°12' E 152°07'2 2.2
2017-Jan-30 22:33S 33°10' E 152°06'5 5.1
2017-Jan-30 21:34S 33°07' E 152°02'3 2.7
2017-Jan-30 20:34S 33°07' E 151°58'4 4.5
2017-Jan-30 19:34S 33°12' E 151°57'4 4.0
2017-Jan-30 18:34S 33°15' E 151°53'2 1.6
2017-Jan-30 17:33S 33°13' E 151°53'5 5.2
2017-Jan-30 16:34S 33°08' E 151°56'5 5.4
2017-Jan-30 15:34S 33°03' E 151°58'4 4.4
2017-Jan-30 14:34S 32°59' E 151°58'10 9.6
2017-Jan-30 13:33S 32°53' E 152°07'1111.5
2017-Jan-30 12:33S 32°47' E 152°19'1212.1
2017-Jan-30 11:33S 32°41' E 152°31'1313.0
2017-Jan-30 10:34S 32°30' E 152°40'1613.6
2017-Jan-30 09:25S 32°16' E 152°47'1214.0
2017-Jan-30 08:33S 32°04' E 152°52'26714.0
2017-Jan-29 13:24S 27°44' E 154°01'4313.5
2017-Jan-29 10:15S 27°01' E 154°03'  

Dump ship's entire track history